Time;durP1;ratioP1;P1;durP2;ratioP2;P2;SDS_P1;SDS_P2;PMS_P1;PMS_P2;Temp;Humidity;BMP_temperature;BMP_pressure;BME280_temperature;BME280_humidity;BME280_pressure;Samples;Min_cycle;Max_cycle;Signal;HPM_P1;HPM_P2
2022/12/09 00:01:33;;;;;;;66.37;31.15;;;;;;;1.26;100.00;97302.97;1700370;83;20914;-80
2022/12/09 00:03:59;;;;;;;58.85;28.45;;;;;;;1.24;100.00;97300.27;1697246;84;21198;-78
2022/12/09 00:06:27;;;;;;;63.50;33.25;;;;;;;1.24;100.00;97294.40;1697216;84;20855;-77
2022/12/09 00:08:55;;;;;;;64.50;32.00;;;;;;;1.24;100.00;97297.59;1697388;84;21370;-78
2022/12/09 00:11:21;;;;;;;59.70;31.62;;;;;;;1.24;100.00;97303.74;1697076;84;21101;-78
2022/12/09 00:13:54;;;;;;;60.75;30.45;;;;;;;1.27;100.00;97301.11;1697353;84;21048;-78
2022/12/09 00:16:21;;;;;;;65.62;30.60;;;;;;;1.28;100.00;97302.73;1708641;83;21165;-80
2022/12/09 00:18:47;;;;;;;56.73;29.67;;;;;;;1.28;100.00;97301.39;1708474;83;21525;-78
2022/12/09 00:21:28;;;;;;;52.33;28.17;;;;;;;1.28;100.00;97296.05;1727842;83;21260;-80
2022/12/09 00:23:55;;;;;;;59.67;28.38;;;;;;;1.26;100.00;97286.95;1707789;83;21025;-80
2022/12/09 00:26:22;;;;;;;62.75;29.05;;;;;;;1.28;100.00;97292.89;1727123;83;21068;-80
2022/12/09 00:28:48;;;;;;;58.98;29.52;;;;;;;1.29;100.00;97290.50;1707610;83;21557;-78
2022/12/09 00:31:17;;;;;;;59.18;28.70;;;;;;;1.26;100.00;97289.63;1728869;83;20966;-80
2022/12/09 00:33:43;;;;;;;63.55;32.85;;;;;;;1.23;100.00;97294.64;1710177;83;21399;-80
2022/12/09 00:36:16;;;;;;;63.30;34.33;;;;;;;1.25;100.00;97297.35;1729732;83;20945;-77
2022/12/09 00:38:42;;;;;;;67.12;33.58;;;;;;;1.27;100.00;97295.25;1709466;83;21001;-77
2022/12/09 00:41:08;;;;;;;59.70;32.63;;;;;;;1.29;100.00;97305.19;1729023;83;21208;-77
2022/12/09 00:43:34;;;;;;;60.08;29.40;;;;;;;1.26;100.00;97301.64;1709686;83;21025;-78
2022/12/09 00:46:00;;;;;;;58.90;31.57;;;;;;;1.24;100.00;97310.41;1729040;83;20896;-80
2022/12/09 00:48:26;;;;;;;66.57;31.12;;;;;;;1.27;100.00;97313.13;1709677;83;20996;-81
2022/12/09 00:50:52;;;;;;;66.50;30.37;;;;;;;1.28;100.00;97313.41;1729287;83;21024;-80
2022/12/09 00:53:18;;;;;;;105.47;47.53;;;;;;;1.27;100.00;97321.13;1710052;83;21807;-81
2022/12/09 00:55:44;;;;;;;82.47;39.55;;;;;;;1.28;100.00;97322.75;1729125;83;20853;-78
2022/12/09 00:58:11;;;;;;;84.60;36.65;;;;;;;1.28;100.00;97328.92;1709811;83;21072;-78
2022/12/09 01:00:38;;;;;;;80.05;37.63;;;;;;;1.29;100.00;97333.73;1727625;83;21532;-80
2022/12/09 01:03:04;;;;;;;60.92;30.62;;;;;;;1.29;100.00;97334.55;1714947;83;21066;-80
2022/12/09 01:05:29;;;;;;;64.45;30.95;;;;;;;1.31;100.00;97333.78;1715038;83;21573;-80
2022/12/09 01:07:55;;;;;;;57.65;27.90;;;;;;;1.32;100.00;97334.59;1714982;83;20953;-81
2022/12/09 01:10:21;;;;;;;52.65;28.57;;;;;;;1.33;100.00;97329.01;1715037;83;20958;-80
2022/12/09 01:12:47;;;;;;;56.68;27.93;;;;;;;1.35;100.00;97326.09;1715082;83;20887;-80
2022/12/09 01:15:13;;;;;;;52.85;28.10;;;;;;;1.34;100.00;97321.28;1717198;83;20909;-80
2022/12/09 01:17:39;;;;;;;53.50;27.32;;;;;;;1.35;100.00;97324.77;1701816;84;21333;-80
2022/12/09 01:20:07;;;;;;;63.50;30.37;;;;;;;1.35;100.00;97323.42;1721001;83;20988;-80
2022/12/09 01:22:33;;;;;;;57.90;29.40;;;;;;;1.38;100.00;97324.30;1701730;84;21054;-78
2022/12/09 01:24:59;;;;;;;60.38;31.17;;;;;;;1.40;100.00;97332.36;1721173;83;20894;-77
2022/12/09 01:27:25;;;;;;;59.00;30.82;;;;;;;1.43;100.00;97327.05;1701490;84;20898;-80
2022/12/09 01:29:50;;;;;;;57.53;30.68;;;;;;;1.43;100.00;97331.06;1721161;83;22091;-80
2022/12/09 01:32:16;;;;;;;58.60;29.63;;;;;;;1.38;100.00;97333.13;1701830;84;20945;-78
2022/12/09 01:34:42;;;;;;;64.92;30.45;;;;;;;1.37;100.00;97336.84;1721135;83;20909;-78
2022/12/09 01:37:08;;;;;;;63.95;32.90;;;;;;;1.37;100.00;97340.85;1701622;84;20886;-80
2022/12/09 01:39:34;;;;;;;74.22;33.55;;;;;;;1.35;100.00;97333.58;1720319;83;20866;-77
2022/12/09 01:42:02;;;;;;;66.95;33.73;;;;;;;1.31;100.00;97334.30;1701510;84;21091;-77
2022/12/09 01:44:30;;;;;;;70.12;33.45;;;;;;;1.25;100.00;97324.56;1720814;83;21041;-78
2022/12/09 01:46:57;;;;;;;61.10;29.32;;;;;;;1.23;100.00;97323.48;1676049;84;21013;-80
2022/12/09 01:49:34;;;;;;;54.00;27.95;;;;;;;1.19;100.00;97320.98;1712056;83;21008;-78
2022/12/09 01:52:11;;;;;;;57.45;28.30;;;;;;;1.20;100.00;97319.12;1718386;83;21527;-78
2022/12/09 01:54:37;;;;;;;53.45;28.32;;;;;;;1.18;100.00;97312.69;1699928;84;21133;-80
2022/12/09 01:57:03;;;;;;;57.00;25.77;;;;;;;1.17;100.00;97312.41;1719349;83;21059;-78
2022/12/09 01:59:29;;;;;;;56.58;27.40;;;;;;;1.14;100.00;97311.55;1729238;83;21464;-77
2022/12/09 02:01:57;;;;;;;47.05;24.82;;;;;;;1.12;100.00;97301.13;1710193;83;20897;-80
2022/12/09 02:04:26;;;;;;;45.67;23.18;;;;;;;1.13;100.00;97303.27;1705159;83;21026;-80
2022/12/09 02:06:51;;;;;;;41.27;21.17;;;;;;;1.16;100.00;97297.97;1700898;83;21315;-78
2022/12/09 02:09:17;;;;;;;43.98;22.90;;;;;;;1.17;100.00;97300.92;1698735;83;20943;-80
2022/12/09 02:12:16;;;;;;;42.70;24.80;;;;;;;1.17;100.00;97304.39;1729039;83;21704;-78
2022/12/09 02:15:04;;;;;;;35.28;19.85;;;;;;;1.18;100.00;97294.00;1725519;83;21079;-77
2022/12/09 02:17:56;;;;;;;38.40;18.30;;;;;;;1.19;100.00;97299.62;1700108;84;21055;-80
2022/12/09 02:20:39;;;;;;;34.80;19.32;;;;;;;1.20;100.00;97296.43;1712335;83;21123;-80
2022/12/09 02:23:29;;;;;;;39.73;20.85;;;;;;;1.21;100.00;97298.08;1688046;83;21068;-78
2022/12/09 02:26:02;;;;;;;45.67;21.07;;;;;;;1.18;100.00;97302.02;1687082;85;21052;-81
2022/12/09 02:28:53;;;;;;;39.70;18.52;;;;;;;1.17;100.00;97303.59;1712168;82;20999;-80
2022/12/09 02:31:53;;;;;;;47.78;25.15;;;;;;;1.15;100.00;97306.50;1712642;83;21467;-77
2022/12/09 02:34:20;;;;;;;37.65;19.77;;;;;;;1.08;100.00;97307.16;1687089;85;21465;-78
2022/12/09 02:37:09;;;;;;;38.08;20.08;;;;;;;1.02;100.00;97305.42;1686982;85;21040;-80
2022/12/09 02:39:51;;;;;;;34.18;19.15;;;;;;;0.99;100.00;97306.70;1687131;85;21567;-77
2022/12/09 02:42:17;;;;;;;42.95;20.75;;;;;;;1.01;100.00;97302.47;1686960;85;21012;-77
2022/12/09 02:44:44;;;;;;;44.30;24.07;;;;;;;1.01;100.00;97302.47;1687290;85;22050;-80
2022/12/09 02:47:10;;;;;;;48.75;27.05;;;;;;;1.04;100.00;97294.01;1686941;85;21116;-80
2022/12/09 02:49:36;;;;;;;44.58;22.48;;;;;;;1.07;100.00;97302.34;1696390;83;21372;-80
2022/12/09 02:52:02;;;;;;;42.43;21.15;;;;;;;1.11;100.00;97302.66;1701588;84;20891;-81
2022/12/09 02:54:28;;;;;;;43.17;23.25;;;;;;;1.09;100.00;97298.09;1706418;84;21050;-78
2022/12/09 02:57:01;;;;;;;42.60;23.75;;;;;;;1.06;100.00;97297.25;1706582;84;21053;-78
2022/12/09 02:59:27;;;;;;;43.20;23.47;;;;;;;1.05;100.00;97291.62;1713680;83;21233;-77
2022/12/09 03:02:16;;;;;;;44.65;23.32;;;;;;;1.03;100.00;97287.86;1690270;84;20913;-77
2022/12/09 03:04:46;;;;;;;44.58;24.20;;;;;;;1.02;100.00;97281.41;1685230;85;21004;-78
2022/12/09 03:07:17;;;;;;;55.90;26.70;;;;;;;0.98;100.00;97285.08;1684939;85;21040;-78
2022/12/09 03:09:44;;;;;;;77.67;32.23;;;;;;;0.96;100.00;97286.38;1685080;85;21091;-78
2022/12/09 03:12:10;;;;;;;54.13;29.67;;;;;;;0.92;100.00;97290.02;1680324;85;21165;-78
2022/12/09 03:14:42;;;;;;;68.05;33.25;;;;;;;0.89;100.00;97292.36;1684982;85;21064;-80
2022/12/09 03:17:21;;;;;;;54.83;26.33;;;;;;;0.87;100.00;97289.93;1680416;85;21099;-80
2022/12/09 03:19:54;;;;;;;48.33;24.92;;;;;;;0.88;100.00;97288.07;1685148;85;21497;-77
2022/12/09 03:22:23;;;;;;;47.45;23.45;;;;;;;0.85;100.00;97286.66;1684919;85;21433;-80
2022/12/09 03:25:05;;;;;;;60.10;29.50;;;;;;;0.85;100.00;97277.33;1685161;85;21149;-77
2022/12/09 03:27:44;;;;;;;53.80;27.93;;;;;;;0.84;100.00;97278.38;1684935;85;21028;-80
2022/12/09 03:30:12;;;;;;;196.85;70.28;;;;;;;0.82;100.00;97275.95;1685058;85;21084;-80
2022/12/09 03:32:38;;;;;;;84.07;41.85;;;;;;;0.81;100.00;97275.66;1684802;85;21159;-80
2022/12/09 03:35:08;;;;;;;83.27;36.53;;;;;;;0.77;100.00;97274.53;1685233;85;21614;-78
2022/12/09 03:37:35;;;;;;;83.58;39.45;;;;;;;0.76;100.00;97274.73;1684878;85;21184;-77
2022/12/09 03:40:01;;;;;;;46.08;24.95;;;;;;;0.79;100.00;97279.09;1685151;85;21012;-80
2022/12/09 03:42:31;;;;;;;38.02;19.95;;;;;;;0.79;100.00;97276.43;1684962;85;21039;-79
2022/12/09 03:45:01;;;;;;;38.88;21.15;;;;;;;0.80;100.00;97286.05;1684515;85;21024;-80
2022/12/09 03:47:27;;;;;;;39.50;21.95;;;;;;;0.77;100.00;97279.02;1680177;85;22152;-80
2022/12/09 03:49:53;;;;;;;43.55;21.85;;;;;;;0.76;100.00;97279.55;1696007;83;21093;-80
2022/12/09 03:52:22;;;;;;;50.08;26.62;;;;;;;0.74;100.00;97269.64;1670446;85;20902;-77
2022/12/09 03:54:53;;;;;;;42.05;23.73;;;;;;;0.71;100.00;97273.31;1717095;83;20994;-78
2022/12/09 03:57:19;;;;;;;57.45;27.93;;;;;;;0.66;100.00;97270.00;1688425;83;21340;-80
2022/12/09 03:59:50;;;;;;;53.98;27.87;;;;;;;0.59;100.00;97269.31;1717238;83;20895;-80
2022/12/09 04:02:16;;;;;;;57.25;29.18;;;;;;;0.56;100.00;97272.45;1692575;83;21155;-80
2022/12/09 04:04:43;;;;;;;60.30;30.10;;;;;;;0.50;100.00;97272.05;1723044;83;21038;-80
2022/12/09 04:07:10;;;;;;;50.55;26.97;;;;;;;0.47;100.00;97271.20;1722797;83;20912;-80
2022/12/09 04:09:36;;;;;;;49.33;27.50;;;;;;;0.42;100.00;97268.41;1723508;83;21000;-78
2022/12/09 04:12:02;;;;;;;58.85;31.80;;;;;;;0.39;100.00;97274.21;1723371;83;20889;-78
2022/12/09 04:14:27;;;;;;;72.90;37.93;;;;;;;0.35;100.00;97273.07;1722854;83;21149;-77
2022/12/09 04:16:53;;;;;;;83.97;41.92;;;;;;;0.35;100.00;97274.41;1702993;83;21003;-84
2022/12/09 04:19:19;;;;;;;83.05;38.85;;;;;;;0.35;100.00;97279.73;1715130;83;20959;-82
2022/12/09 04:21:45;;;;;;;55.38;31.50;;;;;;;0.32;100.00;97282.84;1697008;83;20897;-82
2022/12/09 04:24:11;;;;;;;59.30;29.65;;;;;;;0.28;100.00;97273.18;1708432;83;20874;-82
2022/12/09 04:26:38;;;;;;;57.70;31.82;;;;;;;0.27;100.00;97280.36;1685668;85;21559;-83
2022/12/09 04:29:04;;;;;;;61.30;30.77;;;;;;;0.27;100.00;97276.89;1685783;85;21096;-83
2022/12/09 04:31:30;;;;;;;50.50;27.67;;;;;;;0.27;100.00;97277.70;1686778;85;20949;-81
2022/12/09 04:33:56;;;;;;;53.08;27.87;;;;;;;0.28;100.00;97281.17;1707413;83;21025;-81
2022/12/09 04:36:22;;;;;;;43.60;22.85;;;;;;;0.28;100.00;97287.31;1711873;83;20938;-78
2022/12/09 04:38:47;;;;;;;38.78;23.22;;;;;;;0.30;100.00;97288.94;1711578;83;21100;-78
2022/12/09 04:41:14;;;;;;;41.63;21.57;;;;;;;0.25;100.00;97283.76;1711247;83;20883;-78
2022/12/09 04:43:40;;;;;;;42.98;19.50;;;;;;;0.22;100.00;97286.90;1712208;83;21436;-81
2022/12/09 04:46:09;;;;;;;34.83;18.50;;;;;;;0.22;100.00;97286.90;1712565;83;20918;-79
2022/12/09 04:48:35;;;;;;;36.35;16.50;;;;;;;0.23;100.00;97285.85;1708404;83;21026;-79
2022/12/09 04:51:01;;;;;;;28.30;16.02;;;;;;;0.23;100.00;97283.19;1713036;83;21095;-79
2022/12/09 04:53:27;;;;;;;35.50;16.90;;;;;;;0.23;100.00;97285.85;1718758;82;21034;-78
2022/12/09 04:56:01;;;;;;;35.73;16.67;;;;;;;0.23;100.00;97283.19;1706169;84;21501;-81
2022/12/09 04:58:27;;;;;;;29.67;16.77;;;;;;;0.22;100.00;97288.23;1721189;82;21077;-78
2022/12/09 05:00:53;;;;;;;30.15;17.32;;;;;;;0.22;100.00;97290.09;1739040;82;21072;-78
2022/12/09 05:03:19;;;;;;;31.82;18.62;;;;;;;0.21;100.00;97279.95;1740510;82;21140;-80
2022/12/09 05:05:44;;;;;;;33.42;16.70;;;;;;;0.21;100.00;97277.81;1695523;84;21013;-78
2022/12/09 05:08:10;;;;;;;33.53;16.42;;;;;;;0.20;100.00;97271.67;1710162;83;20910;-78
2022/12/09 05:10:36;;;;;;;27.27;15.40;;;;;;;0.19;100.00;97273.24;1706327;83;20926;-81
2022/12/09 05:13:02;;;;;;;32.67;18.05;;;;;;;0.18;100.00;97272.43;1710204;83;20924;-81
2022/12/09 05:15:28;;;;;;;28.17;15.18;;;;;;;0.19;100.00;97270.05;1706305;84;21262;-78
2022/12/09 05:17:54;;;;;;;28.47;17.57;;;;;;;0.21;100.00;97270.63;1710151;83;21599;-78
2022/12/09 05:20:20;;;;;;;26.48;16.10;;;;;;;0.17;100.00;97265.48;1706336;83;20981;-80
2022/12/09 05:22:46;;;;;;;33.33;19.75;;;;;;;0.12;100.00;97266.69;1710253;83;20980;-78
2022/12/09 05:25:12;;;;;;;26.05;15.00;;;;;;;0.02;100.00;97273.11;1706329;83;20973;-78
2022/12/09 05:27:38;;;;;;;36.38;22.70;;;;;;;-0.02;100.00;97274.59;1709959;83;21168;-78
2022/12/09 05:30:06;;;;;;;30.52;17.67;;;;;;;-0.02;100.00;97275.41;1705691;84;21458;-78
2022/12/09 05:32:32;;;;;;;26.33;15.68;;;;;;;-0.01;100.00;97278.36;1705202;83;21431;-79
2022/12/09 05:34:58;;;;;;;28.98;13.83;;;;;;;-0.01;100.00;97286.88;1705757;84;20899;-81
2022/12/09 05:37:24;;;;;;;25.40;13.95;;;;;;;-0.04;100.00;97276.16;1710213;83;20862;-80
2022/12/09 05:39:50;;;;;;;26.48;14.20;;;;;;;-0.13;100.00;97284.20;1706348;83;21302;-78
2022/12/09 05:42:16;;;;;;;34.30;18.17;;;;;;;-0.16;100.00;97278.53;1710192;83;21038;-78
2022/12/09 05:44:41;;;;;;;33.15;18.07;;;;;;;-0.19;100.00;97279.78;1706085;83;20961;-78
2022/12/09 05:47:07;;;;;;;38.60;18.55;;;;;;;-0.19;100.00;97275.79;1710289;83;20863;-80
2022/12/09 05:49:33;;;;;;;33.48;20.80;;;;;;;-0.18;100.00;97281.92;1706045;84;20953;-78
2022/12/09 05:51:59;;;;;;;34.23;23.65;;;;;;;-0.16;100.00;97277.20;1710217;83;21161;-81
2022/12/09 05:54:25;;;;;;;44.05;26.93;;;;;;;-0.11;100.00;97286.11;1705967;83;21005;-80
2022/12/09 05:56:51;;;;;;;41.53;21.37;;;;;;;-0.14;100.00;97284.44;1710100;83;21006;-81
2022/12/09 05:59:17;;;;;;;37.17;20.90;;;;;;;-0.14;100.00;97283.91;1705952;84;20890;-80
2022/12/09 06:01:43;;;;;;;44.48;23.40;;;;;;;-0.17;100.00;97281.72;1711220;83;20873;-78
2022/12/09 06:04:09;;;;;;;41.28;27.05;;;;;;;-0.16;100.00;97282.53;1742029;82;21064;-78
2022/12/09 06:06:35;;;;;;;77.67;44.85;;;;;;;-0.15;100.00;97272.98;1706779;82;20910;-81
2022/12/09 06:09:01;;;;;;;61.37;37.25;;;;;;;-0.10;100.00;97278.93;1703243;83;21016;-78
2022/12/09 06:11:27;;;;;;;70.67;40.00;;;;;;;-0.08;100.00;97279.02;1706383;83;20946;-81
2022/12/09 06:13:53;;;;;;;61.00;35.10;;;;;;;-0.03;100.00;97280.45;1689097;83;20996;-81
2022/12/09 06:16:20;;;;;;;56.68;36.17;;;;;;;-0.04;100.00;97277.50;1686634;81;21083;-78
2022/12/09 06:18:47;;;;;;;47.62;28.83;;;;;;;-0.04;100.00;97284.16;1705758;82;21007;-80
2022/12/09 06:21:13;;;;;;;50.40;28.02;;;;;;;-0.01;100.00;97289.53;1727317;82;21001;-81
2022/12/09 06:23:40;;;;;;;56.40;27.42;;;;;;;-0.01;100.00;97285.54;1732049;82;21025;-80
2022/12/09 06:26:06;;;;;;;46.63;25.05;;;;;;;-0.05;100.00;97282.54;1732558;82;21010;-80
2022/12/09 06:28:32;;;;;;;53.92;33.85;;;;;;;-0.07;100.00;97283.30;1727159;82;21758;-80
2022/12/09 06:30:58;;;;;;;78.83;44.18;;;;;;;-0.10;100.00;97296.24;1712609;83;21524;-80
2022/12/09 06:33:24;;;;;;;73.42;39.13;;;;;;;-0.07;100.00;97289.14;1678210;83;20918;-78
2022/12/09 06:35:50;;;;;;;63.10;31.87;;;;;;;-0.04;100.00;97290.81;1729430;83;21445;-81
2022/12/09 06:38:16;;;;;;;50.08;27.73;;;;;;;-0.02;100.00;97287.92;1709565;83;20881;-81
2022/12/09 06:40:43;;;;;;;46.30;26.62;;;;;;;0.02;100.00;97297.09;1722248;83;21159;-79
2022/12/09 06:43:09;;;;;;;48.02;28.70;;;;;;;0.06;100.00;97301.42;1712972;81;21013;-79
2022/12/09 06:45:36;;;;;;;47.08;27.05;;;;;;;0.06;100.00;97293.43;1747131;81;21560;-81
2022/12/09 06:48:03;;;;;;;46.42;24.25;;;;;;;0.06;100.00;97293.43;1723028;81;21299;-81
2022/12/09 06:50:29;;;;;;;43.17;23.22;;;;;;;0.08;100.00;97288.16;1709833;83;21463;-80
2022/12/09 06:52:55;;;;;;;44.65;23.57;;;;;;;0.10;100.00;97290.61;1719957;83;21054;-78
2022/12/09 06:55:21;;;;;;;42.93;23.45;;;;;;;0.10;100.00;97282.09;1724521;83;22345;-78
2022/12/09 06:57:46;;;;;;;46.37;26.75;;;;;;;0.08;100.00;97281.49;1729158;83;20979;-81
2022/12/09 07:00:14;;;;;;;46.58;26.27;;;;;;;0.10;100.00;97283.95;1708379;83;20896;-78
2022/12/09 07:02:39;;;;;;;47.93;23.90;;;;;;;0.09;100.00;97277.81;1715705;83;21059;-81
2022/12/09 07:05:06;;;;;;;43.40;25.05;;;;;;;0.12;100.00;97272.02;1719227;83;21157;-78
2022/12/09 07:07:32;;;;;;;57.17;25.08;;;;;;;0.10;100.00;97268.78;1697098;83;21041;-78
2022/12/09 07:09:57;;;;;;;45.95;24.07;;;;;;;0.13;100.00;97272.30;1689999;83;21118;-78
2022/12/09 07:12:23;;;;;;;42.15;24.90;;;;;;;0.12;100.00;97266.69;1673174;83;20917;-78
2022/12/09 07:14:49;;;;;;;43.80;23.02;;;;;;;0.11;100.00;97250.94;1735008;81;21005;-81
2022/12/09 07:17:17;;;;;;;125.55;52.85;;;;;;;0.12;100.00;97242.70;1716920;81;21146;-78
2022/12/09 07:19:43;;;;;;;48.75;24.25;;;;;;;0.06;100.00;97241.48;1730833;80;21088;-78
2022/12/09 07:22:09;;;;;;;42.90;22.82;;;;;;;0.01;100.00;97234.20;1732590;80;20958;-80
2022/12/09 07:24:37;;;;;;;43.50;25.15;;;;;;;-0.02;100.00;97236.78;1722528;81;20895;-80
2022/12/09 07:27:06;;;;;;;50.52;24.07;;;;;;;-0.01;100.00;97240.26;1723480;80;21093;-78
2022/12/09 07:29:33;;;;;;;57.70;31.33;;;;;;;-0.05;100.00;97241.77;1727398;81;21097;-77
2022/12/09 07:31:59;;;;;;;49.38;26.65;;;;;;;-0.05;100.00;97241.77;1731687;80;21136;-78
2022/12/09 07:34:25;;;;;;;49.35;26.80;;;;;;;-0.01;100.00;97242.40;1736534;81;20953;-81
2022/12/09 07:36:51;;;;;;;48.87;27.93;;;;;;;0.07;100.00;97239.11;1717751;81;20895;-78
2022/12/09 07:39:17;;;;;;;57.75;28.50;;;;;;;0.12;100.00;97241.90;1736621;81;21534;-81
2022/12/09 07:41:43;;;;;;;68.05;36.77;;;;;;;0.18;100.00;97236.46;1711342;82;21342;-81
2022/12/09 07:44:10;;;;;;;54.45;27.98;;;;;;;0.26;100.00;97240.63;1686061;83;21027;-78
2022/12/09 07:46:37;;;;;;;48.83;28.98;;;;;;;0.31;100.00;97234.59;1704341;83;21092;-80
2022/12/09 07:49:03;;;;;;;55.90;31.25;;;;;;;0.30;100.00;97231.63;1712714;83;21040;-81
2022/12/09 07:51:29;;;;;;;60.40;32.42;;;;;;;0.32;100.00;97241.53;1715045;82;21481;-78
2022/12/09 07:53:55;;;;;;;84.62;43.48;;;;;;;0.33;100.00;97245.30;1709687;82;21086;-78
2022/12/09 07:56:21;;;;;;;79.70;48.87;;;;;;;0.32;100.00;97250.86;1704917;82;21623;-78
2022/12/09 07:58:47;;;;;;;78.83;46.58;;;;;;;0.33;100.00;97251.95;1713042;83;21032;-80
2022/12/09 08:01:18;;;;;;;67.00;42.53;;;;;;;0.36;100.00;97251.52;1725561;81;21034;-81
2022/12/09 08:03:45;;;;;;;84.05;41.13;;;;;;;0.37;100.00;97254.98;1716512;82;21069;-78
2022/12/09 08:06:12;;;;;;;67.40;39.00;;;;;;;0.39;100.00;97255.55;1733327;81;21821;-78
2022/12/09 08:08:38;;;;;;;95.00;54.27;;;;;;;0.38;100.00;97255.27;1739427;82;21543;-80
2022/12/09 08:11:14;;;;;;;83.85;48.98;;;;;;;0.39;100.00;97247.03;1728103;81;21588;-80
2022/12/09 08:13:40;;;;;;;81.63;49.38;;;;;;;0.43;100.00;97248.20;1733474;81;21377;-78
2022/12/09 08:16:08;;;;;;;66.90;36.50;;;;;;;0.48;100.00;97243.49;1711589;82;21060;-80
2022/12/09 08:18:34;;;;;;;57.08;31.10;;;;;;;0.57;100.00;97248.75;1714644;82;21280;-80
2022/12/09 08:21:10;;;;;;;68.22;33.30;;;;;;;0.60;100.00;97240.80;1700094;82;21432;-78
2022/12/09 08:23:36;;;;;;;59.55;34.40;;;;;;;0.64;100.00;97240.63;1716485;82;20977;-81
2022/12/09 08:26:02;;;;;;;69.32;37.20;;;;;;;0.65;100.00;97250.25;1710187;83;20955;-78
2022/12/09 08:28:28;;;;;;;57.80;29.42;;;;;;;0.72;100.00;97253.08;1689383;83;21111;-78
2022/12/09 08:30:54;;;;;;;64.80;32.55;;;;;;;0.75;100.00;97251.27;1715185;83;21285;-78
2022/12/09 08:33:20;;;;;;;70.35;35.08;;;;;;;0.76;100.00;97249.41;1714885;83;20937;-78
2022/12/09 08:35:46;;;;;;;49.48;26.55;;;;;;;0.76;100.00;97250.21;1719185;82;20901;-78
2022/12/09 08:38:11;;;;;;;43.15;25.25;;;;;;;0.80;100.00;97251.38;1707311;83;20870;-80
2022/12/09 08:40:38;;;;;;;48.55;24.98;;;;;;;0.82;100.00;97254.61;1701298;82;21650;-80
2022/12/09 08:43:05;;;;;;;48.25;26.77;;;;;;;0.83;100.00;97249.56;1701747;83;21322;-78
2022/12/09 08:45:39;;;;;;;58.10;32.70;;;;;;;0.89;100.00;97249.16;1680143;83;21064;-80
2022/12/09 08:48:06;;;;;;;67.47;34.05;;;;;;;0.94;100.00;97250.59;1718905;81;21210;-77
2022/12/09 08:50:32;;;;;;;79.97;39.85;;;;;;;0.98;100.00;97246.39;1736419;81;21017;-78
2022/12/09 08:52:58;;;;;;;47.70;27.20;;;;;;;1.08;100.00;97241.77;1701916;82;21143;-80
2022/12/09 08:55:25;;;;;;;51.60;26.48;;;;;;;1.20;100.00;97241.72;1751155;81;21493;-78
2022/12/09 08:57:50;;;;;;;54.75;29.32;;;;;;;1.24;100.00;97234.34;1687123;83;21111;-81
2022/12/09 09:00:17;;;;;;;50.50;26.40;;;;;;;1.28;100.00;97234.17;1696604;83;20960;-81
2022/12/09 09:02:43;;;;;;;56.13;27.60;;;;;;;1.37;100.00;97233.25;1705697;83;21663;-80
2022/12/09 09:05:09;;;;;;;112.62;51.35;;;;;;;1.50;100.00;97228.13;1712747;83;20918;-78
2022/12/09 09:07:36;;;;;;;71.22;39.53;;;;;;;1.57;100.00;97226.12;1726637;82;21571;-78
2022/12/09 09:10:02;;;;;;;45.78;24.77;;;;;;;1.63;100.00;97231.84;1709540;82;21726;-78
2022/12/09 09:12:29;;;;;;;73.55;32.90;;;;;;;1.73;100.00;97237.88;1696519;82;21248;-81
2022/12/09 09:14:54;;;;;;;47.85;24.55;;;;;;;1.79;100.00;97240.36;1702061;83;21642;-78
2022/12/09 09:17:21;;;;;;;60.90;27.98;;;;;;;1.82;100.00;97245.77;1698346;82;21204;-78
2022/12/09 09:19:47;;;;;;;89.40;37.85;;;;;;;1.86;100.00;97246.36;1715877;82;21427;-80
2022/12/09 09:22:13;;;;;;;49.13;26.40;;;;;;;1.94;100.00;97243.28;1698243;83;21062;-78
2022/12/09 09:24:39;;;;;;;64.47;28.90;;;;;;;1.97;100.00;97229.98;1697222;82;20992;-78
2022/12/09 09:27:05;;;;;;;70.72;32.73;;;;;;;2.00;100.00;97229.48;1719219;82;21059;-78
2022/12/09 09:29:31;;;;;;;73.30;35.58;;;;;;;2.00;100.00;97218.80;1701530;83;20898;-81
2022/12/09 09:31:57;;;;;;;84.40;42.90;;;;;;;2.07;100.00;97220.78;1717436;82;21693;-81
2022/12/09 09:34:24;;;;;;;61.13;31.87;;;;;;;2.12;100.00;97213.35;1717491;82;20909;-81
2022/12/09 09:36:51;;;;;;;59.00;32.25;;;;;;;2.17;100.00;97204.08;1707778;83;21042;-81
2022/12/09 09:39:17;;;;;;;53.23;26.42;;;;;;;2.22;100.00;97206.31;1697883;83;21085;-78
2022/12/09 09:41:59;;;;;;;54.40;27.87;;;;;;;2.28;100.00;97202.35;1708880;82;21117;-81
2022/12/09 09:44:32;;;;;;;55.35;25.30;;;;;;;2.34;100.00;97210.20;1697600;82;21399;-78
2022/12/09 09:46:59;;;;;;;54.45;25.43;;;;;;;2.43;100.00;97214.60;1702101;83;21054;-78
2022/12/09 09:49:35;;;;;;;57.48;26.20;;;;;;;2.51;100.00;97211.50;1694899;83;21110;-81
2022/12/09 09:52:09;;;;;;;46.42;23.38;;;;;;;2.59;100.00;97212.41;1674154;82;21034;-78
2022/12/09 09:54:35;;;;;;;49.53;26.70;;;;;;;2.65;100.00;97199.89;1710613;82;21023;-78
2022/12/09 09:57:35;;;;;;;52.10;25.65;;;;;;;2.69;100.00;97192.47;1706356;82;21317;-78
2022/12/09 10:00:13;;;;;;;60.35;34.92;;;;;;;2.73;100.00;97188.76;1712601;82;21116;-78
2022/12/09 10:02:59;;;;;;;42.08;22.60;;;;;;;2.80;100.00;97198.22;1703113;82;21091;-81
2022/12/09 10:05:34;;;;;;;44.58;23.60;;;;;;;2.85;100.00;97198.02;1700926;82;21032;-81
2022/12/09 10:08:36;;;;;;;36.20;16.93;;;;;;;2.87;100.00;97203.91;1705310;83;21108;-81
2022/12/09 10:11:29;;;;;;;57.00;30.55;;;;;;;2.91;100.00;97193.81;1682806;85;21052;-78
2022/12/09 10:14:16;;;;;;;58.25;29.18;;;;;;;2.96;100.00;97186.36;1704911;82;21052;-81
2022/12/09 10:16:49;;;;;;;60.17;27.42;;;;;;;2.98;100.00;97186.91;1703920;82;21053;-81
2022/12/09 10:19:44;;;;;;;81.87;30.23;;;;;;;3.01;100.00;97180.54;1699910;83;21043;-81
2022/12/09 10:22:16;;;;;;;43.35;23.45;;;;;;;3.07;100.00;97172.02;1731667;82;21151;-78
2022/12/09 10:24:58;;;;;;;45.43;25.43;;;;;;;3.16;100.00;97163.00;1672128;84;21596;-78
2022/12/09 10:27:30;;;;;;;100.40;57.35;;;;;;;3.22;100.00;97166.02;1701566;82;21366;-78
2022/12/09 10:30:03;;;;;;;80.30;39.73;;;;;;;3.23;100.00;97164.95;1678596;83;21149;-78
2022/12/09 10:32:32;;;;;;;169.35;53.55;;;;;;;3.25;100.00;97159.64;1702398;82;21575;-80
2022/12/09 10:34:58;;;;;;;57.35;28.80;;;;;;;3.31;100.00;97164.48;1706704;82;21121;-78
2022/12/09 10:37:32;;;;;;;54.88;25.72;;;;;;;3.33;100.00;97165.03;1731651;80;21049;-78
2022/12/09 10:40:03;;;;;;;57.03;29.00;;;;;;;3.41;100.00;97163.23;1732741;82;22047;-78
2022/12/09 10:45:13;;;;;;;44.85;23.70;;;;;;;3.57;100.00;97156.95;1675542;83;21076;-78
2022/12/09 10:47:40;;;;;;;53.68;26.62;;;;;;;3.57;99.85;97133.38;1706104;82;21017;-78
2022/12/09 10:50:06;;;;;;;59.33;28.17;;;;;;;3.61;100.00;97134.49;1714472;83;21193;-80
2022/12/09 10:52:41;;;;;;;56.45;30.57;;;;;;;3.64;100.00;97141.48;1667479;84;21202;-81
2022/12/09 10:55:23;;;;;;;64.97;30.35;;;;;;;3.66;100.00;97135.86;1721487;81;21073;-81
2022/12/09 10:57:49;;;;;;;47.75;29.82;;;;;;;3.65;99.97;97137.73;1718711;81;21143;-81
2022/12/09 11:00:22;;;;;;;45.70;26.62;;;;;;;3.58;99.32;97149.19;1717805;82;20908;-78
2022/12/09 11:02:51;;;;;;;44.63;26.02;;;;;;;3.49;99.39;97145.36;1717175;81;21862;-81
2022/12/09 11:05:26;;;;;;;40.28;21.42;;;;;;;3.40;98.84;97145.02;1709207;81;21141;-78
2022/12/09 11:07:53;;;;;;;41.13;21.25;;;;;;;3.32;98.74;97147.36;1717234;83;21016;-81
2022/12/09 11:10:24;;;;;;;43.13;27.58;;;;;;;3.27;99.02;97152.69;1729053;81;21123;-81
2022/12/09 11:13:00;;;;;;;42.08;19.45;;;;;;;3.24;99.09;97153.98;1725551;81;21040;-78
2022/12/09 11:15:39;;;;;;;34.35;20.20;;;;;;;3.28;98.45;97160.45;1723213;81;21345;-81
2022/12/09 11:18:08;;;;;;;33.90;19.25;;;;;;;3.28;98.19;97147.60;1721367;81;21041;-78
2022/12/09 11:20:34;;;;;;;39.03;20.15;;;;;;;3.33;97.90;97144.95;1710857;81;21024;-78
2022/12/09 11:23:14;;;;;;;35.13;21.33;;;;;;;3.39;98.16;97149.30;1706228;82;20866;-81
2022/12/09 11:25:57;;;;;;;30.27;18.62;;;;;;;3.45;98.55;97142.13;1706243;83;21052;-78
2022/12/09 11:28:28;;;;;;;35.52;19.32;;;;;;;3.50;97.72;97142.16;1708570;83;21105;-79